sensor_id;sensor_type;location;lat;lon;timestamp;pressure;altitude;pressure_sealevel;temperature;humidity
64230;BME280;50547;49.498;0.092;2024-03-29T00:01:55;985.94;;;9.80;71.16
64230;BME280;50547;49.498;0.092;2024-03-29T00:04:24;986.00;;;9.87;70.27
64230;BME280;50547;49.498;0.092;2024-03-29T00:06:53;985.94;;;9.84;71.04
64230;BME280;50547;49.498;0.092;2024-03-29T00:09:22;985.96;;;9.86;71.69
64230;BME280;50547;49.498;0.092;2024-03-29T00:11:52;985.72;;;9.71;73.22
64230;BME280;50547;49.498;0.092;2024-03-29T00:14:21;985.86;;;9.59;73.58
64230;BME280;50547;49.498;0.092;2024-03-29T00:16:50;985.74;;;9.49;74.84
64230;BME280;50547;49.498;0.092;2024-03-29T00:19:19;985.68;;;9.39;75.39
64230;BME280;50547;49.498;0.092;2024-03-29T00:21:48;985.70;;;9.28;75.54
64230;BME280;50547;49.498;0.092;2024-03-29T00:24:17;985.64;;;9.16;75.88
64230;BME280;50547;49.498;0.092;2024-03-29T00:26:46;985.62;;;9.11;75.30
64230;BME280;50547;49.498;0.092;2024-03-29T00:29:15;985.53;;;9.00;75.03
64230;BME280;50547;49.498;0.092;2024-03-29T00:31:44;985.53;;;9.15;74.42
64230;BME280;50547;49.498;0.092;2024-03-29T00:34:13;985.70;;;9.21;74.31
64230;BME280;50547;49.498;0.092;2024-03-29T00:36:39;985.62;;;9.10;74.24
64230;BME280;50547;49.498;0.092;2024-03-29T00:39:08;985.49;;;9.05;74.61
64230;BME280;50547;49.498;0.092;2024-03-29T00:41:37;985.56;;;9.08;74.53
64230;BME280;50547;49.498;0.092;2024-03-29T00:44:06;985.58;;;8.99;73.71
64230;BME280;50547;49.498;0.092;2024-03-29T00:46:35;985.74;;;9.00;73.73
64230;BME280;50547;49.498;0.092;2024-03-29T00:49:04;985.76;;;8.95;74.02
64230;BME280;50547;49.498;0.092;2024-03-29T00:51:33;985.76;;;8.94;74.23
64230;BME280;50547;49.498;0.092;2024-03-29T00:54:03;985.74;;;8.84;74.01
64230;BME280;50547;49.498;0.092;2024-03-29T00:56:32;985.74;;;8.96;73.22
64230;BME280;50547;49.498;0.092;2024-03-29T00:59:01;985.98;;;8.99;72.94
64230;BME280;50547;49.498;0.092;2024-03-29T01:01:30;985.90;;;9.03;73.72
64230;BME280;50547;49.498;0.092;2024-03-29T01:03:59;986.01;;;9.00;74.09
64230;BME280;50547;49.498;0.092;2024-03-29T01:06:28;986.00;;;9.01;74.01
64230;BME280;50547;49.498;0.092;2024-03-29T01:08:57;985.78;;;8.97;73.75
64230;BME280;50547;49.498;0.092;2024-03-29T01:11:26;985.82;;;8.93;74.14
64230;BME280;50547;49.498;0.092;2024-03-29T01:13:56;985.58;;;8.95;73.82
64230;BME280;50547;49.498;0.092;2024-03-29T01:16:25;985.56;;;8.99;72.90
64230;BME280;50547;49.498;0.092;2024-03-29T01:18:54;985.64;;;9.09;72.92
64230;BME280;50547;49.498;0.092;2024-03-29T01:21:24;985.62;;;8.98;72.95
64230;BME280;50547;49.498;0.092;2024-03-29T01:23:53;985.74;;;9.04;73.03
64230;BME280;50547;49.498;0.092;2024-03-29T01:26:22;985.56;;;9.03;72.95
64230;BME280;50547;49.498;0.092;2024-03-29T01:28:51;985.53;;;9.04;73.39
64230;BME280;50547;49.498;0.092;2024-03-29T01:31:22;985.51;;;8.93;72.93
64230;BME280;50547;49.498;0.092;2024-03-29T01:33:51;985.54;;;8.91;72.74
64230;BME280;50547;49.498;0.092;2024-03-29T01:36:20;985.33;;;8.95;73.19
64230;BME280;50547;49.498;0.092;2024-03-29T01:38:49;985.64;;;8.95;72.39
64230;BME280;50547;49.498;0.092;2024-03-29T01:41:18;985.68;;;8.99;73.14
64230;BME280;50547;49.498;0.092;2024-03-29T01:43:47;985.58;;;8.97;73.57
64230;BME280;50547;49.498;0.092;2024-03-29T01:46:18;985.76;;;8.94;73.93
64230;BME280;50547;49.498;0.092;2024-03-29T01:48:48;985.62;;;8.96;74.21
64230;BME280;50547;49.498;0.092;2024-03-29T01:51:18;985.66;;;9.01;74.38
64230;BME280;50547;49.498;0.092;2024-03-29T01:53:50;985.82;;;9.00;74.85
64230;BME280;50547;49.498;0.092;2024-03-29T01:56:20;985.76;;;8.85;75.13
64230;BME280;50547;49.498;0.092;2024-03-29T01:58:51;985.70;;;8.79;75.92
64230;BME280;50547;49.498;0.092;2024-03-29T02:01:21;985.76;;;8.71;76.07
64230;BME280;50547;49.498;0.092;2024-03-29T02:03:51;985.80;;;8.67;76.06
64230;BME280;50547;49.498;0.092;2024-03-29T02:06:20;985.66;;;8.63;76.54
64230;BME280;50547;49.498;0.092;2024-03-29T02:08:52;985.76;;;8.63;76.83
64230;BME280;50547;49.498;0.092;2024-03-29T02:11:21;985.78;;;8.69;76.88
64230;BME280;50547;49.498;0.092;2024-03-29T02:13:50;985.78;;;8.62;76.98
64230;BME280;50547;49.498;0.092;2024-03-29T02:16:20;985.90;;;8.57;77.20
64230;BME280;50547;49.498;0.092;2024-03-29T02:18:49;985.80;;;8.55;77.63
64230;BME280;50547;49.498;0.092;2024-03-29T02:21:18;985.90;;;8.60;77.28
64230;BME280;50547;49.498;0.092;2024-03-29T02:23:55;985.82;;;8.65;77.64
64230;BME280;50547;49.498;0.092;2024-03-29T02:26:24;985.80;;;8.60;77.10
64230;BME280;50547;49.498;0.092;2024-03-29T02:28:53;985.80;;;8.50;77.61
64230;BME280;50547;49.498;0.092;2024-03-29T02:31:22;985.80;;;8.52;77.92
64230;BME280;50547;49.498;0.092;2024-03-29T02:33:52;985.98;;;8.46;77.70
64230;BME280;50547;49.498;0.092;2024-03-29T02:36:21;985.88;;;8.51;77.63
64230;BME280;50547;49.498;0.092;2024-03-29T02:38:50;985.88;;;8.55;77.60
64230;BME280;50547;49.498;0.092;2024-03-29T02:41:19;985.98;;;8.52;77.99
64230;BME280;50547;49.498;0.092;2024-03-29T02:43:48;985.98;;;8.50;78.26
64230;BME280;50547;49.498;0.092;2024-03-29T02:46:17;985.96;;;8.56;78.34
64230;BME280;50547;49.498;0.092;2024-03-29T02:48:46;985.98;;;8.63;78.10
64230;BME280;50547;49.498;0.092;2024-03-29T02:51:12;986.01;;;8.51;78.40
64230;BME280;50547;49.498;0.092;2024-03-29T02:53:41;986.07;;;8.52;78.47
64230;BME280;50547;49.498;0.092;2024-03-29T02:56:10;986.01;;;8.51;78.45
64230;BME280;50547;49.498;0.092;2024-03-29T02:58:39;986.05;;;8.51;78.88
64230;BME280;50547;49.498;0.092;2024-03-29T03:01:08;985.92;;;8.52;78.09
64230;BME280;50547;49.498;0.092;2024-03-29T03:03:37;985.92;;;8.66;77.39
64230;BME280;50547;49.498;0.092;2024-03-29T03:06:06;985.94;;;8.65;77.67
64230;BME280;50547;49.498;0.092;2024-03-29T03:08:35;986.07;;;8.76;77.53
64230;BME280;50547;49.498;0.092;2024-03-29T03:11:05;986.00;;;8.70;78.44
64230;BME280;50547;49.498;0.092;2024-03-29T03:13:34;985.94;;;8.82;77.78
64230;BME280;50547;49.498;0.092;2024-03-29T03:16:03;985.90;;;8.84;77.45
64230;BME280;50547;49.498;0.092;2024-03-29T03:18:33;985.90;;;8.82;77.72
64230;BME280;50547;49.498;0.092;2024-03-29T03:21:02;985.94;;;8.87;77.39
64230;BME280;50547;49.498;0.092;2024-03-29T03:23:31;985.94;;;8.83;77.53
64230;BME280;50547;49.498;0.092;2024-03-29T03:26:02;985.82;;;8.76;77.60
64230;BME280;50547;49.498;0.092;2024-03-29T03:28:31;985.78;;;8.73;77.94
64230;BME280;50547;49.498;0.092;2024-03-29T03:31:01;985.68;;;8.56;78.78
64230;BME280;50547;49.498;0.092;2024-03-29T03:33:30;985.84;;;8.60;78.87
64230;BME280;50547;49.498;0.092;2024-03-29T03:35:59;985.88;;;8.60;78.42
64230;BME280;50547;49.498;0.092;2024-03-29T03:38:28;985.86;;;8.61;78.29
64230;BME280;50547;49.498;0.092;2024-03-29T03:40:57;985.92;;;8.49;78.69
64230;BME280;50547;49.498;0.092;2024-03-29T03:43:26;985.94;;;8.53;78.83
64230;BME280;50547;49.498;0.092;2024-03-29T03:46:00;985.88;;;8.41;79.22
64230;BME280;50547;49.498;0.092;2024-03-29T03:48:29;985.90;;;8.41;79.10
64230;BME280;50547;49.498;0.092;2024-03-29T03:50:58;985.96;;;8.40;78.76
64230;BME280;50547;49.498;0.092;2024-03-29T03:53:27;986.00;;;8.48;78.65
64230;BME280;50547;49.498;0.092;2024-03-29T03:55:56;985.96;;;8.33;79.32
64230;BME280;50547;49.498;0.092;2024-03-29T03:58:25;986.00;;;8.44;78.89
64230;BME280;50547;49.498;0.092;2024-03-29T04:00:54;985.94;;;8.38;79.33
64230;BME280;50547;49.498;0.092;2024-03-29T04:03:23;985.92;;;8.39;79.09
64230;BME280;50547;49.498;0.092;2024-03-29T04:05:52;985.92;;;8.37;79.22
64230;BME280;50547;49.498;0.092;2024-03-29T04:08:21;985.96;;;8.37;79.07
64230;BME280;50547;49.498;0.092;2024-03-29T04:10:51;985.96;;;8.34;79.15
64230;BME280;50547;49.498;0.092;2024-03-29T04:13:20;986.09;;;8.35;79.10
64230;BME280;50547;49.498;0.092;2024-03-29T04:15:49;986.13;;;8.42;78.88
64230;BME280;50547;49.498;0.092;2024-03-29T04:18:18;986.00;;;8.37;79.35
64230;BME280;50547;49.498;0.092;2024-03-29T04:20:56;986.07;;;8.39;79.27
64230;BME280;50547;49.498;0.092;2024-03-29T04:23:25;986.05;;;8.45;79.07
64230;BME280;50547;49.498;0.092;2024-03-29T04:25:56;986.01;;;8.40;79.74
64230;BME280;50547;49.498;0.092;2024-03-29T04:28:26;986.09;;;8.48;79.51
64230;BME280;50547;49.498;0.092;2024-03-29T04:30:56;986.01;;;8.41;80.04
64230;BME280;50547;49.498;0.092;2024-03-29T04:33:26;986.07;;;8.48;79.67
64230;BME280;50547;49.498;0.092;2024-03-29T04:35:57;986.19;;;8.34;80.74
64230;BME280;50547;49.498;0.092;2024-03-29T04:38:27;986.17;;;8.30;80.65
64230;BME280;50547;49.498;0.092;2024-03-29T04:40:57;986.11;;;8.30;80.23
64230;BME280;50547;49.498;0.092;2024-03-29T04:43:28;986.07;;;8.30;80.45
64230;BME280;50547;49.498;0.092;2024-03-29T04:46:08;986.07;;;8.39;80.24
64230;BME280;50547;49.498;0.092;2024-03-29T04:48:37;986.03;;;8.42;80.03
64230;BME280;50547;49.498;0.092;2024-03-29T04:51:07;986.13;;;8.49;79.90
64230;BME280;50547;49.498;0.092;2024-03-29T04:53:37;986.13;;;8.51;80.21
64230;BME280;50547;49.498;0.092;2024-03-29T04:56:06;986.11;;;8.46;80.80
64230;BME280;50547;49.498;0.092;2024-03-29T04:58:36;986.15;;;8.46;81.01
64230;BME280;50547;49.498;0.092;2024-03-29T05:01:05;986.13;;;8.35;81.26
64230;BME280;50547;49.498;0.092;2024-03-29T05:03:31;986.01;;;8.32;81.70
64230;BME280;50547;49.498;0.092;2024-03-29T05:06:00;986.05;;;8.31;81.39
64230;BME280;50547;49.498;0.092;2024-03-29T05:08:29;986.09;;;8.37;81.39
64230;BME280;50547;49.498;0.092;2024-03-29T05:10:58;986.09;;;8.45;81.34
64230;BME280;50547;49.498;0.092;2024-03-29T05:13:27;986.13;;;8.51;81.14
64230;BME280;50547;49.498;0.092;2024-03-29T05:15:56;986.13;;;8.43;81.52
64230;BME280;50547;49.498;0.092;2024-03-29T05:18:25;986.25;;;8.49;81.19
64230;BME280;50547;49.498;0.092;2024-03-29T05:20:54;986.33;;;8.59;81.02
64230;BME280;50547;49.498;0.092;2024-03-29T05:23:23;986.43;;;8.64;80.69
64230;BME280;50547;49.498;0.092;2024-03-29T05:25:52;986.47;;;8.64;80.77
64230;BME280;50547;49.498;0.092;2024-03-29T05:28:21;986.41;;;8.62;81.03
64230;BME280;50547;49.498;0.092;2024-03-29T05:30:51;986.62;;;8.52;81.70
64230;BME280;50547;49.498;0.092;2024-03-29T05:33:20;986.70;;;8.62;81.26
64230;BME280;50547;49.498;0.092;2024-03-29T05:35:49;986.70;;;8.53;81.73
64230;BME280;50547;49.498;0.092;2024-03-29T05:38:18;986.82;;;8.46;81.96
64230;BME280;50547;49.498;0.092;2024-03-29T05:40:47;986.68;;;8.54;81.65
64230;BME280;50547;49.498;0.092;2024-03-29T05:43:16;986.56;;;8.56;81.51
64230;BME280;50547;49.498;0.092;2024-03-29T05:45:45;986.72;;;8.68;80.98
64230;BME280;50547;49.498;0.092;2024-03-29T05:48:14;986.84;;;8.76;80.59
64230;BME280;50547;49.498;0.092;2024-03-29T05:50:43;986.87;;;8.69;81.01
64230;BME280;50547;49.498;0.092;2024-03-29T05:53:12;986.99;;;8.80;80.51
64230;BME280;50547;49.498;0.092;2024-03-29T05:55:41;986.95;;;8.80;80.68
64230;BME280;50547;49.498;0.092;2024-03-29T05:58:10;986.97;;;8.84;80.49
64230;BME280;50547;49.498;0.092;2024-03-29T06:00:40;987.05;;;8.80;80.75
64230;BME280;50547;49.498;0.092;2024-03-29T06:03:09;987.03;;;8.91;80.26
64230;BME280;50547;49.498;0.092;2024-03-29T06:05:39;987.03;;;8.87;80.47
64230;BME280;50547;49.498;0.092;2024-03-29T06:08:08;986.99;;;8.95;80.23
64230;BME280;50547;49.498;0.092;2024-03-29T06:10:37;986.99;;;9.03;79.97
64230;BME280;50547;49.498;0.092;2024-03-29T06:13:07;986.91;;;8.84;80.72
64230;BME280;50547;49.498;0.092;2024-03-29T06:15:36;986.89;;;9.03;79.93
64230;BME280;50547;49.498;0.092;2024-03-29T06:18:05;987.07;;;9.05;80.06
64230;BME280;50547;49.498;0.092;2024-03-29T06:20:34;987.09;;;9.00;80.18
64230;BME280;50547;49.498;0.092;2024-03-29T06:23:03;987.13;;;9.06;80.11
64230;BME280;50547;49.498;0.092;2024-03-29T06:25:32;987.09;;;9.03;80.46
64230;BME280;50547;49.498;0.092;2024-03-29T06:28:02;986.91;;;9.03;80.37
64230;BME280;50547;49.498;0.092;2024-03-29T06:30:31;987.01;;;9.06;79.95
64230;BME280;50547;49.498;0.092;2024-03-29T06:33:01;986.99;;;9.20;79.46
64230;BME280;50547;49.498;0.092;2024-03-29T06:35:30;987.09;;;9.16;79.82
64230;BME280;50547;49.498;0.092;2024-03-29T06:37:59;987.09;;;9.18;80.00
64230;BME280;50547;49.498;0.092;2024-03-29T06:40:30;987.13;;;9.20;79.78
64230;BME280;50547;49.498;0.092;2024-03-29T06:42:56;987.11;;;9.30;79.35
64230;BME280;50547;49.498;0.092;2024-03-29T06:45:25;987.11;;;9.28;79.58
64230;BME280;50547;49.498;0.092;2024-03-29T06:47:54;987.05;;;9.30;79.66
64230;BME280;50547;49.498;0.092;2024-03-29T06:50:20;987.21;;;9.24;79.89
64230;BME280;50547;49.498;0.092;2024-03-29T06:52:49;987.25;;;9.23;80.08
64230;BME280;50547;49.498;0.092;2024-03-29T06:55:18;987.17;;;9.21;80.01
64230;BME280;50547;49.498;0.092;2024-03-29T06:57:44;987.38;;;9.25;79.89
64230;BME280;50547;49.498;0.092;2024-03-29T07:00:13;987.34;;;9.26;79.67
64230;BME280;50547;49.498;0.092;2024-03-29T07:02:43;987.34;;;9.35;79.43
64230;BME280;50547;49.498;0.092;2024-03-29T07:05:12;987.46;;;9.29;79.63
64230;BME280;50547;49.498;0.092;2024-03-29T07:07:41;987.60;;;9.39;79.24
64230;BME280;50547;49.498;0.092;2024-03-29T07:10:10;987.60;;;9.49;78.64
64230;BME280;50547;49.498;0.092;2024-03-29T07:12:40;987.60;;;9.48;78.67
64230;BME280;50547;49.498;0.092;2024-03-29T07:15:07;987.62;;;9.67;78.30
64230;BME280;50547;49.498;0.092;2024-03-29T07:17:36;987.68;;;9.73;77.93
64230;BME280;50547;49.498;0.092;2024-03-29T07:20:06;987.68;;;9.84;77.41
64230;BME280;50547;49.498;0.092;2024-03-29T07:22:32;987.66;;;9.92;77.21
64230;BME280;50547;49.498;0.092;2024-03-29T07:25:01;987.78;;;9.95;77.38
64230;BME280;50547;49.498;0.092;2024-03-29T07:27:31;987.76;;;10.02;77.52
64230;BME280;50547;49.498;0.092;2024-03-29T07:30:01;987.68;;;9.95;78.23
64230;BME280;50547;49.498;0.092;2024-03-29T07:32:30;987.78;;;10.13;77.47
64230;BME280;50547;49.498;0.092;2024-03-29T07:35:00;987.72;;;10.13;77.61
64230;BME280;50547;49.498;0.092;2024-03-29T07:37:29;987.72;;;10.11;77.64
64230;BME280;50547;49.498;0.092;2024-03-29T07:39:58;987.72;;;9.94;78.27
64230;BME280;50547;49.498;0.092;2024-03-29T07:42:24;987.80;;;10.06;77.99
64230;BME280;50547;49.498;0.092;2024-03-29T07:44:53;987.78;;;10.09;77.77
64230;BME280;50547;49.498;0.092;2024-03-29T07:47:22;987.84;;;10.14;77.64
64230;BME280;50547;49.498;0.092;2024-03-29T07:49:51;987.98;;;10.06;78.02
64230;BME280;50547;49.498;0.092;2024-03-29T07:52:20;988.09;;;10.25;77.19
64230;BME280;50547;49.498;0.092;2024-03-29T07:54:49;988.09;;;10.18;77.40
64230;BME280;50547;49.498;0.092;2024-03-29T07:57:18;987.98;;;10.41;76.59
64230;BME280;50547;49.498;0.092;2024-03-29T07:59:44;988.03;;;10.30;77.10
64230;BME280;50547;49.498;0.092;2024-03-29T08:02:13;987.88;;;10.48;76.45
64230;BME280;50547;49.498;0.092;2024-03-29T08:04:42;987.88;;;10.75;75.53
64230;BME280;50547;49.498;0.092;2024-03-29T08:07:08;988.00;;;10.92;75.24
64230;BME280;50547;49.498;0.092;2024-03-29T08:09:38;988.00;;;10.86;75.72
64230;BME280;50547;49.498;0.092;2024-03-29T08:12:05;988.03;;;11.11;75.09
64230;BME280;50547;49.498;0.092;2024-03-29T08:14:34;988.03;;;11.12;75.34
64230;BME280;50547;49.498;0.092;2024-03-29T08:17:03;988.02;;;11.07;75.96
64230;BME280;50547;49.498;0.092;2024-03-29T08:19:32;988.03;;;11.31;74.76
64230;BME280;50547;49.498;0.092;2024-03-29T08:22:01;988.03;;;11.28;75.40
64230;BME280;50547;49.498;0.092;2024-03-29T08:24:30;988.05;;;11.42;74.91
64230;BME280;50547;49.498;0.092;2024-03-29T08:26:59;988.05;;;11.34;75.02
64230;BME280;50547;49.498;0.092;2024-03-29T08:29:29;988.09;;;11.41;74.48
64230;BME280;50547;49.498;0.092;2024-03-29T08:31:58;988.19;;;11.46;74.56
64230;BME280;50547;49.498;0.092;2024-03-29T08:34:27;988.07;;;11.66;74.37
64230;BME280;50547;49.498;0.092;2024-03-29T08:36:56;988.11;;;11.63;74.22
64230;BME280;50547;49.498;0.092;2024-03-29T08:39:25;987.94;;;11.59;73.98
64230;BME280;50547;49.498;0.092;2024-03-29T08:41:54;988.17;;;11.47;74.92
64230;BME280;50547;49.498;0.092;2024-03-29T08:44:23;987.94;;;11.71;73.78
64230;BME280;50547;49.498;0.092;2024-03-29T08:46:52;987.98;;;11.83;73.15
64230;BME280;50547;49.498;0.092;2024-03-29T08:49:21;988.05;;;11.89;73.18
64230;BME280;50547;49.498;0.092;2024-03-29T08:51:50;988.09;;;11.90;73.30
64230;BME280;50547;49.498;0.092;2024-03-29T08:54:19;988.19;;;12.03;73.12
64230;BME280;50547;49.498;0.092;2024-03-29T08:56:48;988.05;;;11.91;73.43
64230;BME280;50547;49.498;0.092;2024-03-29T08:59:18;988.03;;;11.69;74.74
64230;BME280;50547;49.498;0.092;2024-03-29T09:01:47;988.07;;;11.56;75.31
64230;BME280;50547;49.498;0.092;2024-03-29T09:04:16;988.13;;;11.54;74.85
64230;BME280;50547;49.498;0.092;2024-03-29T09:06:45;988.15;;;11.31;75.85
64230;BME280;50547;49.498;0.092;2024-03-29T09:09:14;988.15;;;11.32;75.03
64230;BME280;50547;49.498;0.092;2024-03-29T09:11:43;988.11;;;11.32;74.87
64230;BME280;50547;49.498;0.092;2024-03-29T09:14:12;988.17;;;11.73;73.87
64230;BME280;50547;49.498;0.092;2024-03-29T09:16:41;988.09;;;11.84;73.75
64230;BME280;50547;49.498;0.092;2024-03-29T09:19:10;988.07;;;11.93;73.38
64230;BME280;50547;49.498;0.092;2024-03-29T09:21:40;988.11;;;12.06;73.31
64230;BME280;50547;49.498;0.092;2024-03-29T09:24:09;988.02;;;12.21;72.14
64230;BME280;50547;49.498;0.092;2024-03-29T09:26:34;988.09;;;12.35;71.96
64230;BME280;50547;49.498;0.092;2024-03-29T09:29:04;988.09;;;12.45;71.46
64230;BME280;50547;49.498;0.092;2024-03-29T09:31:33;988.09;;;12.54;71.64
64230;BME280;50547;49.498;0.092;2024-03-29T09:34:02;988.13;;;12.57;70.63
64230;BME280;50547;49.498;0.092;2024-03-29T09:36:31;988.29;;;12.65;70.54
64230;BME280;50547;49.498;0.092;2024-03-29T09:39:00;988.33;;;12.66;70.85
64230;BME280;50547;49.498;0.092;2024-03-29T09:41:31;988.23;;;12.63;70.60
64230;BME280;50547;49.498;0.092;2024-03-29T09:44:02;988.27;;;12.65;70.42
64230;BME280;50547;49.498;0.092;2024-03-29T09:46:33;988.33;;;12.89;69.69
64230;BME280;50547;49.498;0.092;2024-03-29T09:49:03;988.23;;;12.98;69.75
64230;BME280;50547;49.498;0.092;2024-03-29T09:51:34;988.29;;;12.81;70.23
64230;BME280;50547;49.498;0.092;2024-03-29T09:54:05;988.31;;;12.77;70.06
64230;BME280;50547;49.498;0.092;2024-03-29T09:56:35;988.27;;;12.70;70.14
64230;BME280;50547;49.498;0.092;2024-03-29T09:59:04;988.29;;;12.85;69.93
64230;BME280;50547;49.498;0.092;2024-03-29T10:01:34;988.27;;;12.86;70.31
64230;BME280;50547;49.498;0.092;2024-03-29T10:04:04;988.19;;;12.92;69.71
64230;BME280;50547;49.498;0.092;2024-03-29T10:06:34;988.15;;;12.86;69.99
64230;BME280;50547;49.498;0.092;2024-03-29T10:09:03;988.13;;;12.80;70.35
64230;BME280;50547;49.498;0.092;2024-03-29T10:11:32;988.21;;;12.94;69.64
64230;BME280;50547;49.498;0.092;2024-03-29T10:14:02;988.11;;;13.14;68.81
64230;BME280;50547;49.498;0.092;2024-03-29T10:16:31;988.15;;;13.26;68.85
64230;BME280;50547;49.498;0.092;2024-03-29T10:19:00;988.23;;;13.31;69.07
64230;BME280;50547;49.498;0.092;2024-03-29T10:21:29;988.19;;;13.51;68.51
64230;BME280;50547;49.498;0.092;2024-03-29T10:23:59;988.21;;;13.48;69.09
64230;BME280;50547;49.498;0.092;2024-03-29T10:26:29;988.13;;;13.47;68.78
64230;BME280;50547;49.498;0.092;2024-03-29T10:29:01;988.17;;;13.34;68.77
64230;BME280;50547;49.498;0.092;2024-03-29T10:31:34;988.21;;;13.36;68.59
64230;BME280;50547;49.498;0.092;2024-03-29T10:34:03;988.17;;;13.47;68.05
64230;BME280;50547;49.498;0.092;2024-03-29T10:36:33;988.29;;;13.21;67.93
64230;BME280;50547;49.498;0.092;2024-03-29T10:39:09;988.33;;;13.15;68.90
64230;BME280;50547;49.498;0.092;2024-03-29T10:41:40;988.27;;;13.24;69.20
64230;BME280;50547;49.498;0.092;2024-03-29T10:44:10;988.23;;;13.59;67.27
64230;BME280;50547;49.498;0.092;2024-03-29T10:46:41;988.15;;;13.52;65.40
64230;BME280;50547;49.498;0.092;2024-03-29T10:49:10;988.19;;;13.55;66.46
64230;BME280;50547;49.498;0.092;2024-03-29T10:51:40;988.21;;;13.34;68.46
64230;BME280;50547;49.498;0.092;2024-03-29T10:54:11;988.35;;;13.22;69.25
64230;BME280;50547;49.498;0.092;2024-03-29T10:56:40;988.31;;;13.34;68.93
64230;BME280;50547;49.498;0.092;2024-03-29T10:59:16;988.31;;;13.44;67.76
64230;BME280;50547;49.498;0.092;2024-03-29T11:01:51;988.27;;;13.67;66.59
64230;BME280;50547;49.498;0.092;2024-03-29T11:04:22;988.23;;;13.56;65.61
64230;BME280;50547;49.498;0.092;2024-03-29T11:06:57;988.31;;;13.45;67.13
64230;BME280;50547;49.498;0.092;2024-03-29T11:09:28;988.19;;;13.22;66.27
64230;BME280;50547;49.498;0.092;2024-03-29T11:12:01;988.15;;;13.31;66.40
64230;BME280;50547;49.498;0.092;2024-03-29T11:14:35;988.13;;;13.26;66.47
64230;BME280;50547;49.498;0.092;2024-03-29T11:17:06;988.17;;;13.11;67.18
64230;BME280;50547;49.498;0.092;2024-03-29T11:19:35;988.15;;;13.34;66.89
64230;BME280;50547;49.498;0.092;2024-03-29T11:22:08;988.19;;;13.55;66.37
64230;BME280;50547;49.498;0.092;2024-03-29T11:24:45;988.23;;;13.85;64.94
64230;BME280;50547;49.498;0.092;2024-03-29T11:27:14;988.27;;;13.87;65.01
64230;BME280;50547;49.498;0.092;2024-03-29T11:29:43;988.29;;;13.68;66.58
64230;BME280;50547;49.498;0.092;2024-03-29T11:32:10;988.11;;;13.60;65.40
64230;BME280;50547;49.498;0.092;2024-03-29T11:34:44;988.17;;;13.65;64.42
64230;BME280;50547;49.498;0.092;2024-03-29T11:37:14;988.29;;;13.82;63.67
64230;BME280;50547;49.498;0.092;2024-03-29T11:39:47;988.29;;;13.92;63.38
64230;BME280;50547;49.498;0.092;2024-03-29T11:42:13;988.21;;;13.86;62.27
64230;BME280;50547;49.498;0.092;2024-03-29T11:44:42;988.33;;;13.84;63.43
64230;BME280;50547;49.498;0.092;2024-03-29T11:47:13;988.33;;;13.88;63.78
64230;BME280;50547;49.498;0.092;2024-03-29T11:49:44;988.45;;;14.04;64.72
64230;BME280;50547;49.498;0.092;2024-03-29T11:52:13;988.66;;;14.53;62.18
64230;BME280;50547;49.498;0.092;2024-03-29T11:54:46;988.58;;;14.66;62.98
64230;BME280;50547;49.498;0.092;2024-03-29T11:57:17;988.74;;;14.30;64.84
64230;BME280;50547;49.498;0.092;2024-03-29T11:59:46;988.72;;;14.30;65.35
64230;BME280;50547;49.498;0.092;2024-03-29T12:02:17;988.64;;;14.07;65.21
64230;BME280;50547;49.498;0.092;2024-03-29T12:04:46;988.62;;;13.98;65.71
64230;BME280;50547;49.498;0.092;2024-03-29T12:07:16;988.82;;;13.85;64.94
64230;BME280;50547;49.498;0.092;2024-03-29T12:09:45;988.78;;;13.75;66.07
64230;BME280;50547;49.498;0.092;2024-03-29T12:12:14;988.50;;;13.66;66.48
64230;BME280;50547;49.498;0.092;2024-03-29T12:14:43;988.68;;;13.63;65.49
64230;BME280;50547;49.498;0.092;2024-03-29T12:17:10;988.88;;;13.61;66.22
64230;BME280;50547;49.498;0.092;2024-03-29T12:19:39;988.86;;;13.79;64.83
64230;BME280;50547;49.498;0.092;2024-03-29T12:22:08;988.70;;;13.70;66.00
64230;BME280;50547;49.498;0.092;2024-03-29T12:24:38;988.80;;;13.74;65.22
64230;BME280;50547;49.498;0.092;2024-03-29T12:27:08;988.76;;;13.82;64.60
64230;BME280;50547;49.498;0.092;2024-03-29T12:29:37;988.74;;;13.73;64.23
64230;BME280;50547;49.498;0.092;2024-03-29T12:32:08;988.74;;;13.70;64.42
64230;BME280;50547;49.498;0.092;2024-03-29T12:34:38;988.84;;;14.05;64.35
64230;BME280;50547;49.498;0.092;2024-03-29T12:37:31;988.72;;;14.13;64.09
64230;BME280;50547;49.498;0.092;2024-03-29T12:40:00;988.78;;;13.99;63.87
64230;BME280;50547;49.498;0.092;2024-03-29T12:42:30;988.94;;;14.12;64.13
64230;BME280;50547;49.498;0.092;2024-03-29T12:45:00;988.92;;;14.08;64.89
64230;BME280;50547;49.498;0.092;2024-03-29T12:47:29;988.90;;;14.19;64.00
64230;BME280;50547;49.498;0.092;2024-03-29T12:49:59;988.86;;;14.37;63.33
64230;BME280;50547;49.498;0.092;2024-03-29T12:52:36;988.90;;;14.52;63.70
64230;BME280;50547;49.498;0.092;2024-03-29T12:55:06;988.84;;;15.01;62.78
64230;BME280;50547;49.498;0.092;2024-03-29T12:57:35;988.84;;;15.47;60.51
64230;BME280;50547;49.498;0.092;2024-03-29T13:00:05;988.80;;;15.68;58.98
64230;BME280;50547;49.498;0.092;2024-03-29T13:02:35;988.86;;;15.83;59.07
64230;BME280;50547;49.498;0.092;2024-03-29T13:05:05;988.90;;;15.79;58.93
64230;BME280;50547;49.498;0.092;2024-03-29T13:07:34;988.92;;;15.97;58.99
64230;BME280;50547;49.498;0.092;2024-03-29T13:10:04;988.86;;;15.98;58.83
64230;BME280;50547;49.498;0.092;2024-03-29T13:12:33;988.84;;;16.17;57.71
64230;BME280;50547;49.498;0.092;2024-03-29T13:15:14;988.94;;;15.46;61.14
64230;BME280;50547;49.498;0.092;2024-03-29T13:17:46;988.94;;;15.46;61.41
64230;BME280;50547;49.498;0.092;2024-03-29T13:20:17;989.01;;;15.52;60.72
64230;BME280;50547;49.498;0.092;2024-03-29T13:22:47;988.90;;;15.59;59.93
64230;BME280;50547;49.498;0.092;2024-03-29T13:25:17;988.86;;;15.72;58.73
64230;BME280;50547;49.498;0.092;2024-03-29T13:27:46;988.82;;;15.66;57.50
64230;BME280;50547;49.498;0.092;2024-03-29T13:30:15;988.86;;;15.42;59.35
64230;BME280;50547;49.498;0.092;2024-03-29T13:32:45;988.96;;;15.40;60.11
64230;BME280;50547;49.498;0.092;2024-03-29T13:35:14;988.88;;;15.11;60.48
64230;BME280;50547;49.498;0.092;2024-03-29T13:37:49;988.90;;;15.09;61.59
64230;BME280;50547;49.498;0.092;2024-03-29T13:40:20;988.96;;;15.51;58.97